sensor_id;sensor_type;location;lat;lon;timestamp;pressure;altitude;pressure_sealevel;temperature;humidity
42247;BME280;27913;42.722;23.268;2023-03-13T00:03:53;95163.66;;;0.45;60.78
42247;BME280;27913;42.722;23.268;2023-03-13T00:06:20;95176.47;;;0.58;60.48
42247;BME280;27913;42.722;23.268;2023-03-13T00:08:45;95190.47;;;0.67;60.57
42247;BME280;27913;42.722;23.268;2023-03-13T00:11:12;95219.75;;;0.79;60.97
42247;BME280;27913;42.722;23.268;2023-03-13T00:13:38;95213.59;;;0.80;60.81
42247;BME280;27913;42.722;23.268;2023-03-13T00:16:09;95263.47;;;1.05;60.92
42247;BME280;27913;42.722;23.268;2023-03-13T00:18:35;95268.06;;;1.01;60.63
42247;BME280;27913;42.722;23.268;2023-03-13T00:21:05;95270.19;;;0.96;60.70
42247;BME280;27913;42.722;23.268;2023-03-13T00:23:33;95249.88;;;0.68;60.66
42247;BME280;27913;42.722;23.268;2023-03-13T00:26:02;95248.22;;;0.67;61.12
42247;BME280;27913;42.722;23.268;2023-03-13T00:28:30;95195.56;;;0.45;60.76
42247;BME280;27913;42.722;23.268;2023-03-13T00:31:03;95275.84;;;0.90;60.81
42247;BME280;27913;42.722;23.268;2023-03-13T00:33:33;95274.09;;;0.90;60.95
42247;BME280;27913;42.722;23.268;2023-03-13T00:36:04;95252.81;;;0.75;60.89
42247;BME280;27913;42.722;23.268;2023-03-13T00:38:30;95170.03;;;0.29;60.83
42247;BME280;27913;42.722;23.268;2023-03-13T00:41:08;95189.91;;;0.40;60.96
42247;BME280;27913;42.722;23.268;2023-03-13T00:43:36;95244.00;;;0.66;61.34
42247;BME280;27913;42.722;23.268;2023-03-13T00:46:01;95276.47;;;0.82;61.23
42247;BME280;27913;42.722;23.268;2023-03-13T00:48:27;95279.75;;;0.84;61.12
42247;BME280;27913;42.722;23.268;2023-03-13T00:50:53;95187.56;;;0.26;61.47
42247;BME280;27913;42.722;23.268;2023-03-13T00:53:18;95236.81;;;0.58;61.57
42247;BME280;27913;42.722;23.268;2023-03-13T00:56:08;95237.06;;;0.55;61.60
42247;BME280;27913;42.722;23.268;2023-03-13T00:58:36;95264.34;;;0.71;61.60
42247;BME280;27913;42.722;23.268;2023-03-13T01:01:07;95182.75;;;0.21;61.21
42247;BME280;27913;42.722;23.268;2023-03-13T01:03:34;95215.41;;;0.45;61.19
42247;BME280;27913;42.722;23.268;2023-03-13T01:06:01;95270.59;;;0.68;61.33
42247;BME280;27913;42.722;23.268;2023-03-13T01:08:28;95176.75;;;0.20;61.32
42247;BME280;27913;42.722;23.268;2023-03-13T01:11:02;95184.72;;;0.29;61.31
42247;BME280;27913;42.722;23.268;2023-03-13T01:13:29;95259.03;;;0.72;61.40
42247;BME280;27913;42.722;23.268;2023-03-13T01:16:01;95249.41;;;0.63;61.68
42247;BME280;27913;42.722;23.268;2023-03-13T01:18:26;95260.38;;;0.67;62.01
42247;BME280;27913;42.722;23.268;2023-03-13T01:20:52;95263.50;;;0.70;61.59
42247;BME280;27913;42.722;23.268;2023-03-13T01:23:17;95228.47;;;0.55;61.66
42247;BME280;27913;42.722;23.268;2023-03-13T01:25:43;95267.28;;;0.78;61.52
42247;BME280;27913;42.722;23.268;2023-03-13T01:28:08;95272.56;;;0.76;61.62
42247;BME280;27913;42.722;23.268;2023-03-13T01:30:34;95199.66;;;0.25;61.36
42247;BME280;27913;42.722;23.268;2023-03-13T01:32:59;95282.09;;;0.76;61.68
42247;BME280;27913;42.722;23.268;2023-03-13T01:35:26;95226.25;;;0.39;61.39
42247;BME280;27913;42.722;23.268;2023-03-13T01:37:51;95291.06;;;0.71;61.68
42247;BME280;27913;42.722;23.268;2023-03-13T01:40:17;95197.56;;;0.19;61.66
42247;BME280;27913;42.722;23.268;2023-03-13T01:42:54;95283.19;;;0.73;61.73
42247;BME280;27913;42.722;23.268;2023-03-13T01:48:59;95283.88;;;0.75;62.26
42247;BME280;27913;42.722;23.268;2023-03-13T01:51:36;95242.34;;;0.54;62.22
42247;BME280;27913;42.722;23.268;2023-03-13T01:56:54;95280.22;;;0.78;61.90
42247;BME280;27913;42.722;23.268;2023-03-13T01:59:22;95195.56;;;0.22;62.00
42247;BME280;27913;42.722;23.268;2023-03-13T02:01:48;95282.34;;;0.84;61.95
42247;BME280;27913;42.722;23.268;2023-03-13T02:04:16;95276.34;;;0.83;62.09
42247;BME280;27913;42.722;23.268;2023-03-13T02:06:45;95253.28;;;0.69;61.77
42247;BME280;27913;42.722;23.268;2023-03-13T02:09:19;95280.47;;;0.86;61.75
42247;BME280;27913;42.722;23.268;2023-03-13T02:11:52;95243.19;;;0.54;62.04
42247;BME280;27913;42.722;23.268;2023-03-13T02:14:22;95293.63;;;0.83;62.17
42247;BME280;27913;42.722;23.268;2023-03-13T02:16:51;95299.66;;;0.60;63.95
42247;BME280;27913;42.722;23.268;2023-03-13T02:19:34;95247.25;;;-0.12;65.72
42247;BME280;27913;42.722;23.268;2023-03-13T02:27:59;95290.75;;;-0.42;68.40
42247;BME280;27913;42.722;23.268;2023-03-13T02:30:26;95323.31;;;-0.39;69.14
42247;BME280;27913;42.722;23.268;2023-03-13T02:32:52;95325.19;;;-0.41;69.85
42247;BME280;27913;42.722;23.268;2023-03-13T02:35:20;95328.22;;;-0.47;69.88
42247;BME280;27913;42.722;23.268;2023-03-13T02:37:49;95285.88;;;-0.82;70.15
42247;BME280;27913;42.722;23.268;2023-03-13T02:40:21;95337.53;;;-0.58;70.09
42247;BME280;27913;42.722;23.268;2023-03-13T02:42:49;95341.72;;;-0.68;70.55
42247;BME280;27913;42.722;23.268;2023-03-13T02:45:17;95331.25;;;-0.91;71.09
42247;BME280;27913;42.722;23.268;2023-03-13T02:47:42;95239.22;;;-1.67;71.83
42247;BME280;27913;42.722;23.268;2023-03-13T02:50:08;95349.03;;;-1.00;71.78
42247;BME280;27913;42.722;23.268;2023-03-13T02:52:51;95358.97;;;-0.93;71.81
42247;BME280;27913;42.722;23.268;2023-03-13T02:55:32;95313.78;;;-1.25;71.75
42247;BME280;27913;42.722;23.268;2023-03-13T02:57:59;95277.88;;;-1.41;71.90
42247;BME280;27913;42.722;23.268;2023-03-13T03:00:25;95362.53;;;-0.83;71.96
42247;BME280;27913;42.722;23.268;2023-03-13T03:02:52;95358.38;;;-0.73;71.60
42247;BME280;27913;42.722;23.268;2023-03-13T03:05:18;95312.59;;;-0.95;71.84
42247;BME280;27913;42.722;23.268;2023-03-13T03:07:44;95357.53;;;-0.60;71.48
42247;BME280;27913;42.722;23.268;2023-03-13T03:10:10;95368.25;;;-0.53;71.23
42247;BME280;27913;42.722;23.268;2023-03-13T03:12:35;95263.59;;;-1.21;70.45
42247;BME280;27913;42.722;23.268;2023-03-13T03:15:01;95374.56;;;-0.57;70.77
42247;BME280;27913;42.722;23.268;2023-03-13T03:17:29;95352.50;;;-0.75;70.57
42247;BME280;27913;42.722;23.268;2023-03-13T03:19:55;95333.13;;;-0.93;70.63
42247;BME280;27913;42.722;23.268;2023-03-13T03:22:20;95394.72;;;-0.63;70.94
42247;BME280;27913;42.722;23.268;2023-03-13T03:24:46;95380.06;;;-0.75;71.47
42247;BME280;27913;42.722;23.268;2023-03-13T03:27:11;95385.06;;;-0.85;71.49
42247;BME280;27913;42.722;23.268;2023-03-13T03:29:37;95341.00;;;-1.08;71.62
42247;BME280;27913;42.722;23.268;2023-03-13T03:32:02;95293.44;;;-1.30;71.78
42247;BME280;27913;42.722;23.268;2023-03-13T03:34:28;95394.81;;;-0.64;71.81
42247;BME280;27913;42.722;23.268;2023-03-13T03:36:53;95387.09;;;-0.64;71.33
42247;BME280;27913;42.722;23.268;2023-03-13T03:39:19;95324.00;;;-1.24;71.07
42247;BME280;27913;42.722;23.268;2023-03-13T03:41:44;95396.75;;;-0.92;71.18
42247;BME280;27913;42.722;23.268;2023-03-13T03:44:10;95416.56;;;-0.93;71.82
42247;BME280;27913;42.722;23.268;2023-03-13T03:46:35;95409.78;;;-0.94;72.06
42247;BME280;27913;42.722;23.268;2023-03-13T03:49:01;95428.75;;;-0.82;72.11
42247;BME280;27913;42.722;23.268;2023-03-13T03:51:26;95410.50;;;-0.92;71.89
42247;BME280;27913;42.722;23.268;2023-03-13T03:53:52;95398.44;;;-1.04;72.00
42247;BME280;27913;42.722;23.268;2023-03-13T03:56:19;95433.53;;;-0.76;71.87
42247;BME280;27913;42.722;23.268;2023-03-13T03:58:44;95408.22;;;-0.97;72.10
42247;BME280;27913;42.722;23.268;2023-03-13T04:01:10;95441.88;;;-0.85;71.77
42247;BME280;27913;42.722;23.268;2023-03-13T04:03:35;95437.00;;;-0.77;72.09
42247;BME280;27913;42.722;23.268;2023-03-13T04:06:01;95383.44;;;-1.12;72.02
42247;BME280;27913;42.722;23.268;2023-03-13T04:08:26;95375.00;;;-1.14;71.73
42247;BME280;27913;42.722;23.268;2023-03-13T04:10:52;95456.66;;;-0.74;71.61
42247;BME280;27913;42.722;23.268;2023-03-13T04:13:17;95430.66;;;-0.97;71.83
42247;BME280;27913;42.722;23.268;2023-03-13T04:15:43;95425.78;;;-1.02;72.21
42247;BME280;27913;42.722;23.268;2023-03-13T04:18:08;95459.13;;;-0.86;72.31
42247;BME280;27913;42.722;23.268;2023-03-13T04:20:34;95463.16;;;-0.81;72.21
42247;BME280;27913;42.722;23.268;2023-03-13T04:23:00;95470.91;;;-0.81;72.64
42247;BME280;27913;42.722;23.268;2023-03-13T04:25:26;95438.59;;;-1.00;72.68
42247;BME280;27913;42.722;23.268;2023-03-13T04:27:51;95372.13;;;-1.49;72.50
42247;BME280;27913;42.722;23.268;2023-03-13T04:30:17;95474.00;;;-0.89;72.79
42247;BME280;27913;42.722;23.268;2023-03-13T04:32:42;95459.34;;;-1.02;72.21
42247;BME280;27913;42.722;23.268;2023-03-13T04:35:08;95461.31;;;-1.05;72.12
42247;BME280;27913;42.722;23.268;2023-03-13T04:37:34;95474.22;;;-1.05;72.41
42247;BME280;27913;42.722;23.268;2023-03-13T04:39:59;95432.41;;;-1.37;72.28
42247;BME280;27913;42.722;23.268;2023-03-13T04:42:26;95509.44;;;-0.91;71.94
42247;BME280;27913;42.722;23.268;2023-03-13T04:44:51;95512.84;;;-0.91;72.83
42247;BME280;27913;42.722;23.268;2023-03-13T04:47:17;95438.81;;;-1.42;72.68
42247;BME280;27913;42.722;23.268;2023-03-13T04:49:42;95399.78;;;-1.64;72.65
42247;BME280;27913;42.722;23.268;2023-03-13T04:52:08;95506.66;;;-0.88;72.58
42247;BME280;27913;42.722;23.268;2023-03-13T04:54:33;95474.44;;;-1.08;72.36
42247;BME280;27913;42.722;23.268;2023-03-13T04:56:59;95523.91;;;-0.89;72.40
42247;BME280;27913;42.722;23.268;2023-03-13T04:59:24;95433.97;;;-1.34;72.43
42247;BME280;27913;42.722;23.268;2023-03-13T05:01:49;95475.16;;;-1.06;71.72
42247;BME280;27913;42.722;23.268;2023-03-13T05:04:16;95413.00;;;-1.42;72.06
42247;BME280;27913;42.722;23.268;2023-03-13T05:06:41;95506.66;;;-0.88;71.73
42247;BME280;27913;42.722;23.268;2023-03-13T05:09:07;95512.13;;;-0.80;71.45
42247;BME280;27913;42.722;23.268;2023-03-13T05:11:33;95519.06;;;-0.80;71.32
42247;BME280;27913;42.722;23.268;2023-03-13T05:13:59;95452.13;;;-1.23;71.29
42247;BME280;27913;42.722;23.268;2023-03-13T05:16:24;95443.44;;;-1.35;71.98
42247;BME280;27913;42.722;23.268;2023-03-13T05:18:50;95531.06;;;-0.79;71.62
42247;BME280;27913;42.722;23.268;2023-03-13T05:21:15;95503.56;;;-1.06;72.46
42247;BME280;27913;42.722;23.268;2023-03-13T05:23:41;95546.03;;;-0.84;72.54
42247;BME280;27913;42.722;23.268;2023-03-13T05:26:06;95446.56;;;-1.42;72.43
42247;BME280;27913;42.722;23.268;2023-03-13T05:28:32;95482.78;;;-1.31;72.32
42247;BME280;27913;42.722;23.268;2023-03-13T05:30:57;95498.59;;;-1.23;72.06
42247;BME280;27913;42.722;23.268;2023-03-13T05:33:23;95532.69;;;-1.04;72.22
42247;BME280;27913;42.722;23.268;2023-03-13T05:35:49;95548.09;;;-0.90;72.77
42247;BME280;27913;42.722;23.268;2023-03-13T05:38:14;95545.19;;;-0.85;72.37
42247;BME280;27913;42.722;23.268;2023-03-13T05:40:39;95504.78;;;-1.12;71.65
42247;BME280;27913;42.722;23.268;2023-03-13T05:43:05;95532.06;;;-1.08;71.90
42247;BME280;27913;42.722;23.268;2023-03-13T05:45:31;95490.72;;;-1.34;71.66
42247;BME280;27913;42.722;23.268;2023-03-13T05:47:56;95527.91;;;-1.11;71.89
42247;BME280;27913;42.722;23.268;2023-03-13T05:50:23;95537.25;;;-0.95;71.50
42247;BME280;27913;42.722;23.268;2023-03-13T05:52:49;95562.84;;;-0.79;71.63
42247;BME280;27913;42.722;23.268;2023-03-13T05:55:14;95517.50;;;-1.09;72.03
42247;BME280;27913;42.722;23.268;2023-03-13T05:57:43;95487.00;;;-1.30;71.30
42247;BME280;27913;42.722;23.268;2023-03-13T06:00:10;95577.56;;;-0.79;71.25
42247;BME280;27913;42.722;23.268;2023-03-13T06:02:36;95573.19;;;-0.79;72.32
42247;BME280;27913;42.722;23.268;2023-03-13T06:05:01;95539.91;;;-0.97;72.36
42247;BME280;27913;42.722;23.268;2023-03-13T06:07:27;95581.28;;;-0.70;72.36
42247;BME280;27913;42.722;23.268;2023-03-13T06:09:52;95558.09;;;-0.72;72.07
42247;BME280;27913;42.722;23.268;2023-03-13T06:12:18;95569.25;;;-0.45;71.81
42247;BME280;27913;42.722;23.268;2023-03-13T06:14:43;95572.19;;;-0.37;71.10
42247;BME280;27913;42.722;23.268;2023-03-13T06:17:09;95581.06;;;-0.28;71.05
42247;BME280;27913;42.722;23.268;2023-03-13T06:19:34;95541.56;;;-0.43;70.11
42247;BME280;27913;42.722;23.268;2023-03-13T06:22:00;95522.56;;;-0.42;69.56
42247;BME280;27913;42.722;23.268;2023-03-13T06:24:25;95568.59;;;-0.10;69.54
42247;BME280;27913;42.722;23.268;2023-03-13T06:26:50;95574.81;;;-0.13;69.62
42247;BME280;27913;42.722;23.268;2023-03-13T06:29:16;95540.09;;;-0.21;70.02
42247;BME280;27913;42.722;23.268;2023-03-13T06:31:42;95539.94;;;-0.07;69.80
42247;BME280;27913;42.722;23.268;2023-03-13T06:34:10;95457.94;;;-0.42;69.20
42247;BME280;27913;42.722;23.268;2023-03-13T06:36:36;95537.38;;;0.18;68.68
42247;BME280;27913;42.722;23.268;2023-03-13T06:39:01;95533.59;;;0.10;67.53
42247;BME280;27913;42.722;23.268;2023-03-13T06:41:27;95474.56;;;-0.33;67.36
42247;BME280;27913;42.722;23.268;2023-03-13T06:43:52;95577.09;;;0.30;67.32
42247;BME280;27913;42.722;23.268;2023-03-13T06:46:20;95549.13;;;0.10;67.63
42247;BME280;27913;42.722;23.268;2023-03-13T06:48:46;95535.88;;;0.02;67.47
42247;BME280;27913;42.722;23.268;2023-03-13T06:51:16;95572.19;;;0.38;67.51
42247;BME280;27913;42.722;23.268;2023-03-13T06:53:42;95565.25;;;0.39;67.14
42247;BME280;27913;42.722;23.268;2023-03-13T06:56:11;95515.25;;;0.14;67.41
42247;BME280;27913;42.722;23.268;2023-03-13T06:58:36;95537.56;;;0.28;67.05
42247;BME280;27913;42.722;23.268;2023-03-13T07:01:07;95516.91;;;0.15;66.84
42247;BME280;27913;42.722;23.268;2023-03-13T07:03:33;95525.03;;;0.21;66.97
42247;BME280;27913;42.722;23.268;2023-03-13T07:05:59;95447.88;;;-0.34;67.56
42247;BME280;27913;42.722;23.268;2023-03-13T07:08:25;95503.81;;;0.05;67.44
42247;BME280;27913;42.722;23.268;2023-03-13T07:10:50;95513.59;;;0.13;67.54
42247;BME280;27913;42.722;23.268;2023-03-13T07:13:17;95546.19;;;0.40;67.61
42247;BME280;27913;42.722;23.268;2023-03-13T07:15:46;95486.72;;;0.02;66.94
42247;BME280;27913;42.722;23.268;2023-03-13T07:18:13;95547.56;;;0.32;67.50
42247;BME280;27913;42.722;23.268;2023-03-13T07:20:38;95506.41;;;0.05;67.60
42247;BME280;27913;42.722;23.268;2023-03-13T07:23:04;95557.06;;;0.45;67.88
42247;BME280;27913;42.722;23.268;2023-03-13T07:25:29;95555.44;;;0.55;67.66
42247;BME280;27913;42.722;23.268;2023-03-13T07:27:55;95536.06;;;0.61;67.59
42247;BME280;27913;42.722;23.268;2023-03-13T07:30:21;95521.69;;;0.57;67.56
42247;BME280;27913;42.722;23.268;2023-03-13T07:32:46;95442.84;;;0.14;66.93
42247;BME280;27913;42.722;23.268;2023-03-13T07:35:12;95517.72;;;0.64;66.33
42247;BME280;27913;42.722;23.268;2023-03-13T07:37:37;95519.16;;;0.68;66.60
42247;BME280;27913;42.722;23.268;2023-03-13T07:40:03;95514.16;;;0.65;66.66
42247;BME280;27913;42.722;23.268;2023-03-13T07:42:29;95525.25;;;0.67;66.98
42247;BME280;27913;42.722;23.268;2023-03-13T07:44:54;95529.03;;;0.75;66.95
42247;BME280;27913;42.722;23.268;2023-03-13T07:47:20;95532.84;;;0.82;65.84
42247;BME280;27913;42.722;23.268;2023-03-13T07:49:45;95439.34;;;0.26;66.22
42247;BME280;27913;42.722;23.268;2023-03-13T07:52:11;95443.03;;;0.35;66.55
42247;BME280;27913;42.722;23.268;2023-03-13T07:54:36;95519.22;;;0.91;66.92
42247;BME280;27913;42.722;23.268;2023-03-13T07:57:02;95514.34;;;0.87;66.32
42247;BME280;27913;42.722;23.268;2023-03-13T07:59:28;95476.28;;;0.64;67.64
42247;BME280;27913;42.722;23.268;2023-03-13T08:01:54;95496.81;;;0.79;66.34
42247;BME280;27913;42.722;23.268;2023-03-13T08:04:19;95516.50;;;0.93;66.40
42247;BME280;27913;42.722;23.268;2023-03-13T08:06:44;95513.91;;;0.93;66.23
42247;BME280;27913;42.722;23.268;2023-03-13T08:09:10;95473.69;;;0.64;66.10
42247;BME280;27913;42.722;23.268;2023-03-13T08:11:37;95509.81;;;1.02;66.15
42247;BME280;27913;42.722;23.268;2023-03-13T08:14:04;95489.22;;;1.12;65.83
42247;BME280;27913;42.722;23.268;2023-03-13T08:16:32;95476.63;;;1.07;64.83
42247;BME280;27913;42.722;23.268;2023-03-13T08:18:59;95462.91;;;0.93;64.67
42247;BME280;27913;42.722;23.268;2023-03-13T08:21:29;95445.75;;;0.92;64.01
42247;BME280;27913;42.722;23.268;2023-03-13T08:23:55;95537.19;;;1.52;64.01
42247;BME280;27913;42.722;23.268;2023-03-13T08:26:23;95500.41;;;1.24;63.56
42247;BME280;27913;42.722;23.268;2023-03-13T08:28:55;95506.66;;;1.32;63.46
42247;BME280;27913;42.722;23.268;2023-03-13T08:31:29;95504.31;;;1.29;62.83
42247;BME280;27913;42.722;23.268;2023-03-13T08:33:55;95503.69;;;1.37;63.22
42247;BME280;27913;42.722;23.268;2023-03-13T08:36:32;95495.13;;;1.37;63.42
42247;BME280;27913;42.722;23.268;2023-03-13T08:39:18;95540.59;;;1.75;63.22
42247;BME280;27913;42.722;23.268;2023-03-13T08:41:44;95480.28;;;1.39;63.55
42247;BME280;27913;42.722;23.268;2023-03-13T08:44:12;95441.41;;;1.16;63.52
42247;BME280;27913;42.722;23.268;2023-03-13T08:46:38;95510.56;;;1.61;63.47
42247;BME280;27913;42.722;23.268;2023-03-13T08:49:04;95507.81;;;1.74;63.06
42247;BME280;27913;42.722;23.268;2023-03-13T08:51:31;95464.59;;;1.63;63.09
42247;BME280;27913;42.722;23.268;2023-03-13T08:53:56;95514.91;;;1.84;62.94
42247;BME280;27913;42.722;23.268;2023-03-13T08:56:24;95508.03;;;1.94;62.50
42247;BME280;27913;42.722;23.268;2023-03-13T08:58:51;95468.25;;;1.72;62.71
42247;BME280;27913;42.722;23.268;2023-03-13T09:01:17;95525.69;;;2.12;61.59
42247;BME280;27913;42.722;23.268;2023-03-13T09:03:43;95493.31;;;1.95;61.66
42247;BME280;27913;42.722;23.268;2023-03-13T09:06:09;95491.50;;;2.07;61.62
42247;BME280;27913;42.722;23.268;2023-03-13T09:08:36;95481.13;;;2.07;61.43
42247;BME280;27913;42.722;23.268;2023-03-13T09:11:04;95478.47;;;2.18;61.31
42247;BME280;27913;42.722;23.268;2023-03-13T09:13:35;95503.75;;;2.49;61.35
42247;BME280;27913;42.722;23.268;2023-03-13T09:16:04;95466.50;;;2.38;60.91
42247;BME280;27913;42.722;23.268;2023-03-13T09:18:31;95484.88;;;2.47;59.96
42247;BME280;27913;42.722;23.268;2023-03-13T09:21:00;95432.03;;;2.15;60.09
42247;BME280;27913;42.722;23.268;2023-03-13T09:23:26;95531.16;;;2.74;59.91
42247;BME280;27913;42.722;23.268;2023-03-13T09:25:53;95418.41;;;2.01;60.08
42247;BME280;27913;42.722;23.268;2023-03-13T09:28:18;95537.13;;;2.86;60.61
42247;BME280;27913;42.722;23.268;2023-03-13T09:30:44;95461.34;;;2.60;59.40
42247;BME280;27913;42.722;23.268;2023-03-13T09:33:10;95451.19;;;2.57;59.34
42247;BME280;27913;42.722;23.268;2023-03-13T09:35:37;95481.31;;;2.81;58.81
42247;BME280;27913;42.722;23.268;2023-03-13T09:38:03;95527.75;;;3.17;58.58
42247;BME280;27913;42.722;23.268;2023-03-13T09:40:29;95474.13;;;2.94;58.93
42247;BME280;27913;42.722;23.268;2023-03-13T09:43:01;95405.34;;;2.67;58.68
42247;BME280;27913;42.722;23.268;2023-03-13T09:45:32;95515.41;;;3.40;58.56
42247;BME280;27913;42.722;23.268;2023-03-13T09:48:04;95478.16;;;3.30;58.39
42247;BME280;27913;42.722;23.268;2023-03-13T09:50:34;95507.41;;;3.53;58.01
42247;BME280;27913;42.722;23.268;2023-03-13T09:53:30;95491.91;;;3.52;58.21
42247;BME280;27913;42.722;23.268;2023-03-13T09:55:57;95514.19;;;3.76;57.80
42247;BME280;27913;42.722;23.268;2023-03-13T09:58:24;95522.31;;;3.82;57.29
42247;BME280;27913;42.722;23.268;2023-03-13T10:00:53;95505.59;;;3.85;56.87
42247;BME280;27913;42.722;23.268;2023-03-13T10:05:57;95430.06;;;3.55;56.63
42247;BME280;27913;42.722;23.268;2023-03-13T10:08:26;95493.59;;;4.14;56.89
42247;BME280;27913;42.722;23.268;2023-03-13T10:11:03;95469.34;;;4.03;56.85
42247;BME280;27913;42.722;23.268;2023-03-13T10:16:31;95436.22;;;4.25;54.74
42247;BME280;27913;42.722;23.268;2023-03-13T10:19:09;95360.69;;;3.76;54.13
42247;BME280;27913;42.722;23.268;2023-03-13T10:21:35;95462.38;;;4.43;54.09
42247;BME280;27913;42.722;23.268;2023-03-13T10:26:49;95455.53;;;4.52;54.74
42247;BME280;27913;42.722;23.268;2023-03-13T10:29:26;95462.13;;;4.56;54.19
42247;BME280;27913;42.722;23.268;2023-03-13T10:31:56;95461.28;;;4.56;53.67
42247;BME280;27913;42.722;23.268;2023-03-13T10:34:23;95456.75;;;4.58;54.04
42247;BME280;27913;42.722;23.268;2023-03-13T10:36:50;95424.84;;;4.46;53.67
42247;BME280;27913;42.722;23.268;2023-03-13T10:39:23;95418.38;;;4.50;53.48
42247;BME280;27913;42.722;23.268;2023-03-13T10:41:56;95402.75;;;4.50;53.36
42247;BME280;27913;42.722;23.268;2023-03-13T10:44:23;95433.41;;;4.76;53.65
42247;BME280;27913;42.722;23.268;2023-03-13T10:46:59;95384.91;;;4.55;53.10
42247;BME280;27913;42.722;23.268;2023-03-13T10:49:26;95409.41;;;4.82;52.39
42247;BME280;27913;42.722;23.268;2023-03-13T10:51:59;95428.44;;;4.93;52.08
42247;BME280;27913;42.722;23.268;2023-03-13T10:54:28;95387.03;;;4.80;52.49
42247;BME280;27913;42.722;23.268;2023-03-13T10:59:51;95410.69;;;5.16;51.97
42247;BME280;27913;42.722;23.268;2023-03-13T11:02:34;95357.75;;;5.06;51.53
42247;BME280;27913;42.722;23.268;2023-03-13T11:05:01;95380.59;;;5.22;51.19
42247;BME280;27913;42.722;23.268;2023-03-13T11:07:32;95404.31;;;5.57;51.10
42247;BME280;27913;42.722;23.268;2023-03-13T11:12:50;95346.44;;;5.25;49.43
42247;BME280;27913;42.722;23.268;2023-03-13T11:15:46;95397.28;;;5.67;49.96
42247;BME280;27913;42.722;23.268;2023-03-13T11:18:23;95390.78;;;5.72;49.58
42247;BME280;27913;42.722;23.268;2023-03-13T11:20:55;95387.44;;;5.79;49.88
42247;BME280;27913;42.722;23.268;2023-03-13T11:23:28;95296.19;;;5.23;49.51
42247;BME280;27913;42.722;23.268;2023-03-13T11:26:18;95358.50;;;5.73;49.13
42247;BME280;27913;42.722;23.268;2023-03-13T11:28:52;95364.00;;;5.70;48.72
42247;BME280;27913;42.722;23.268;2023-03-13T11:31:30;95369.81;;;5.82;49.17
42247;BME280;27913;42.722;23.268;2023-03-13T11:34:23;95356.72;;;5.91;49.62
42247;BME280;27913;42.722;23.268;2023-03-13T11:52:45;95319.63;;;6.24;47.71
42247;BME280;27913;42.722;23.268;2023-03-13T11:55:17;95306.88;;;6.21;47.30
42247;BME280;27913;42.722;23.268;2023-03-13T11:59:01;95324.00;;;6.42;47.93
42247;BME280;27913;42.722;23.268;2023-03-13T12:01:00;95316.88;;;6.52;47.53
42247;BME280;27913;42.722;23.268;2023-03-13T12:03:37;95312.53;;;6.61;46.95
42247;BME280;27913;42.722;23.268;2023-03-13T12:06:06;95238.66;;;6.24;46.97
42247;BME280;27913;42.722;23.268;2023-03-13T12:08:45;95309.03;;;6.79;46.88
42247;BME280;27913;42.722;23.268;2023-03-13T12:11:34;95295.84;;;6.89;46.58
42247;BME280;27913;42.722;23.268;2023-03-13T12:14:10;95274.28;;;6.87;45.70
42247;BME280;27913;42.722;23.268;2023-03-13T12:16:51;95291.38;;;7.16;45.40
42247;BME280;27913;42.722;23.268;2023-03-13T12:19:25;95289.25;;;7.11;44.54
42247;BME280;27913;42.722;23.268;2023-03-13T12:21:55;95288.94;;;7.15;44.38
42247;BME280;27913;42.722;23.268;2023-03-13T12:24:36;95251.47;;;7.06;43.42
42247;BME280;27913;42.722;23.268;2023-03-13T12:27:38;95284.91;;;7.37;43.32
42247;BME280;27913;42.722;23.268;2023-03-13T12:30:23;95223.88;;;7.20;43.30
42247;BME280;27913;42.722;23.268;2023-03-13T12:33:33;95280.56;;;7.79;43.45
42247;BME280;27913;42.722;23.268;2023-03-13T12:44:33;95251.75;;;8.13;43.17
42247;BME280;27913;42.722;23.268;2023-03-13T12:47:08;95274.81;;;8.34;43.37
42247;BME280;27913;42.722;23.268;2023-03-13T12:49:53;95245.50;;;8.30;43.29
42247;BME280;27913;42.722;23.268;2023-03-13T12:52:42;95261.81;;;8.49;42.36
42247;BME280;27913;42.722;23.268;2023-03-13T13:01:06;95246.81;;;8.91;41.58
42247;BME280;27913;42.722;23.268;2023-03-13T13:03:37;95254.81;;;8.98;41.72
42247;BME280;27913;42.722;23.268;2023-03-13T13:06:11;95271.66;;;9.12;41.21
42247;BME280;27913;42.722;23.268;2023-03-13T13:08:41;95254.03;;;8.89;40.60
42247;BME280;27913;42.722;23.268;2023-03-13T13:13:59;95255.34;;;8.93;40.57
42247;BME280;27913;42.722;23.268;2023-03-13T13:16:25;95246.94;;;8.98;40.62
42247;BME280;27913;42.722;23.268;2023-03-13T13:18:51;95266.97;;;9.31;40.75
42247;BME280;27913;42.722;23.268;2023-03-13T13:23:43;95269.97;;;9.51;40.22
42247;BME280;27913;42.722;23.268;2023-03-13T13:29:03;95258.19;;;9.71;40.00
42247;BME280;27913;42.722;23.268;2023-03-13T13:36:57;95224.34;;;9.76;39.94
42247;BME280;27913;42.722;23.268;2023-03-13T13:41:55;95176.28;;;9.52;39.28
42247;BME280;27913;42.722;23.268;2023-03-13T13:44:23;95231.03;;;10.02;39.08
42247;BME280;27913;42.722;23.268;2023-03-13T13:46:49;95186.06;;;9.97;38.64
42247;BME280;27913;42.722;23.268;2023-03-13T13:49:19;95245.25;;;10.46;38.43
42247;BME280;27913;42.722;23.268;2023-03-13T13:57:11;95237.38;;;10.61;38.24
42247;BME280;27913;42.722;23.268;2023-03-13T13:59:44;95226.94;;;10.83;38.01
42247;BME280;27913;42.722;23.268;2023-03-13T14:02:19;95231.19;;;10.84;37.64
42247;BME280;27913;42.722;23.268;2023-03-13T14:04:51;95231.56;;;10.81;37.96
42247;BME280;27913;42.722;23.268;2023-03-13T14:07:23;95183.94;;;10.46;37.46
42247;BME280;27913;42.722;23.268;2023-03-13T14:09:57;95228.22;;;10.57;37.60
42247;BME280;27913;42.722;23.268;2023-03-13T14:12:32;95233.41;;;10.66;37.13
42247;BME280;27913;42.722;23.268;2023-03-13T14:15:18;95199.06;;;10.44;37.67
42247;BME280;27913;42.722;23.268;2023-03-13T14:17:48;95195.84;;;10.42;37.24
42247;BME280;27913;42.722;23.268;2023-03-13T14:20:21;95235.13;;;10.73;37.06
42247;BME280;27913;42.722;23.268;2023-03-13T14:22:48;95197.94;;;10.61;36.96
42247;BME280;27913;42.722;23.268;2023-03-13T14:25:15;95184.41;;;10.80;36.47